sensor_id;sensor_type;location;lat;lon;timestamp;P1;durP1;ratioP1;P2;durP2;ratioP2
5475;SDS011;2760;50.000;9.194;2023-07-02T00:02:15;4.70;;;4.27;;
5475;SDS011;2760;50.000;9.194;2023-07-02T00:04:42;4.37;;;3.97;;
5475;SDS011;2760;50.000;9.194;2023-07-02T00:07:09;3.83;;;3.50;;
5475;SDS011;2760;50.000;9.194;2023-07-02T00:09:37;4.27;;;3.87;;
5475;SDS011;2760;50.000;9.194;2023-07-02T00:12:04;4.20;;;3.80;;
5475;SDS011;2760;50.000;9.194;2023-07-02T00:14:33;4.13;;;3.80;;
5475;SDS011;2760;50.000;9.194;2023-07-02T00:17:00;4.20;;;3.80;;
5475;SDS011;2760;50.000;9.194;2023-07-02T00:19:27;3.60;;;3.30;;
5475;SDS011;2760;50.000;9.194;2023-07-02T00:21:54;5.17;;;3.57;;
5475;SDS011;2760;50.000;9.194;2023-07-02T00:24:22;4.60;;;3.37;;
5475;SDS011;2760;50.000;9.194;2023-07-02T00:26:49;3.83;;;3.50;;
5475;SDS011;2760;50.000;9.194;2023-07-02T00:29:16;3.60;;;3.30;;
5475;SDS011;2760;50.000;9.194;2023-07-02T00:31:45;6.50;;;3.27;;
5475;SDS011;2760;50.000;9.194;2023-07-02T00:34:14;4.97;;;3.50;;
5475;SDS011;2760;50.000;9.194;2023-07-02T00:36:42;3.63;;;3.40;;
5475;SDS011;2760;50.000;9.194;2023-07-02T00:39:10;3.57;;;3.27;;
5475;SDS011;2760;50.000;9.194;2023-07-02T00:41:37;4.00;;;3.37;;
5475;SDS011;2760;50.000;9.194;2023-07-02T00:44:05;3.93;;;3.17;;
5475;SDS011;2760;50.000;9.194;2023-07-02T00:46:32;6.97;;;2.80;;
5475;SDS011;2760;50.000;9.194;2023-07-02T00:49:01;4.97;;;3.47;;
5475;SDS011;2760;50.000;9.194;2023-07-02T00:51:31;4.43;;;2.90;;
5475;SDS011;2760;50.000;9.194;2023-07-02T00:53:58;3.63;;;3.17;;
5475;SDS011;2760;50.000;9.194;2023-07-02T00:56:25;3.43;;;2.90;;
5475;SDS011;2760;50.000;9.194;2023-07-02T00:58:54;3.73;;;2.70;;
5475;SDS011;2760;50.000;9.194;2023-07-02T01:01:26;7.00;;;2.80;;
5475;SDS011;2760;50.000;9.194;2023-07-02T01:03:56;2.47;;;2.27;;
5475;SDS011;2760;50.000;9.194;2023-07-02T01:06:27;3.67;;;3.00;;
5475;SDS011;2760;50.000;9.194;2023-07-02T01:08:56;3.70;;;3.10;;
5475;SDS011;2760;50.000;9.194;2023-07-02T01:11:25;6.83;;;2.60;;
5475;SDS011;2760;50.000;9.194;2023-07-02T01:13:55;3.83;;;2.60;;
5475;SDS011;2760;50.000;9.194;2023-07-02T01:16:27;4.13;;;2.97;;
5475;SDS011;2760;50.000;9.194;2023-07-02T01:18:58;4.70;;;3.17;;
5475;SDS011;2760;50.000;9.194;2023-07-02T01:21:32;4.67;;;2.87;;
5475;SDS011;2760;50.000;9.194;2023-07-02T01:24:00;2.30;;;2.07;;
5475;SDS011;2760;50.000;9.194;2023-07-02T01:26:28;4.10;;;3.13;;
5475;SDS011;2760;50.000;9.194;2023-07-02T01:28:59;4.37;;;2.70;;
5475;SDS011;2760;50.000;9.194;2023-07-02T01:31:27;5.63;;;2.53;;
5475;SDS011;2760;50.000;9.194;2023-07-02T01:33:54;2.70;;;2.50;;
5475;SDS011;2760;50.000;9.194;2023-07-02T01:36:21;3.73;;;3.17;;
5475;SDS011;2760;50.000;9.194;2023-07-02T01:38:49;4.53;;;3.00;;
5475;SDS011;2760;50.000;9.194;2023-07-02T01:41:16;5.77;;;2.73;;
5475;SDS011;2760;50.000;9.194;2023-07-02T01:43:43;3.60;;;3.00;;
5475;SDS011;2760;50.000;9.194;2023-07-02T01:46:10;4.70;;;2.90;;
5475;SDS011;2760;50.000;9.194;2023-07-02T01:48:37;5.67;;;3.10;;
5475;SDS011;2760;50.000;9.194;2023-07-02T01:51:04;4.63;;;2.80;;
5475;SDS011;2760;50.000;9.194;2023-07-02T01:53:31;3.43;;;2.60;;
5475;SDS011;2760;50.000;9.194;2023-07-02T01:56:00;3.90;;;2.83;;
5475;SDS011;2760;50.000;9.194;2023-07-02T01:58:27;4.73;;;2.97;;
5475;SDS011;2760;50.000;9.194;2023-07-02T02:00:54;5.93;;;3.33;;
5475;SDS011;2760;50.000;9.194;2023-07-02T02:03:21;4.33;;;2.90;;
5475;SDS011;2760;50.000;9.194;2023-07-02T02:05:49;4.67;;;3.03;;
5475;SDS011;2760;50.000;9.194;2023-07-02T02:08:18;3.33;;;2.97;;
5475;SDS011;2760;50.000;9.194;2023-07-02T02:10:45;8.33;;;5.00;;
5475;SDS011;2760;50.000;9.194;2023-07-02T02:13:13;4.53;;;2.87;;
5475;SDS011;2760;50.000;9.194;2023-07-02T02:15:42;2.73;;;2.53;;
5475;SDS011;2760;50.000;9.194;2023-07-02T02:18:09;8.17;;;3.40;;
5475;SDS011;2760;50.000;9.194;2023-07-02T02:20:36;5.30;;;2.90;;
5475;SDS011;2760;50.000;9.194;2023-07-02T02:23:04;3.40;;;2.50;;
5475;SDS011;2760;50.000;9.194;2023-07-02T02:25:31;4.30;;;2.60;;
5475;SDS011;2760;50.000;9.194;2023-07-02T02:27:59;5.40;;;2.77;;
5475;SDS011;2760;50.000;9.194;2023-07-02T02:30:28;3.80;;;2.73;;
5475;SDS011;2760;50.000;9.194;2023-07-02T02:32:55;4.33;;;3.03;;
5475;SDS011;2760;50.000;9.194;2023-07-02T02:35:23;4.97;;;2.60;;
5475;SDS011;2760;50.000;9.194;2023-07-02T02:37:50;5.07;;;2.23;;
5475;SDS011;2760;50.000;9.194;2023-07-02T02:40:17;5.57;;;2.73;;
5475;SDS011;2760;50.000;9.194;2023-07-02T02:42:44;3.87;;;2.70;;
5475;SDS011;2760;50.000;9.194;2023-07-02T02:45:12;5.00;;;2.70;;
5475;SDS011;2760;50.000;9.194;2023-07-02T02:47:40;3.37;;;2.20;;
5475;SDS011;2760;50.000;9.194;2023-07-02T02:50:08;3.80;;;2.70;;
5475;SDS011;2760;50.000;9.194;2023-07-02T02:52:35;3.30;;;2.60;;
5475;SDS011;2760;50.000;9.194;2023-07-02T02:55:02;5.40;;;2.83;;
5475;SDS011;2760;50.000;9.194;2023-07-02T02:57:31;2.90;;;2.23;;
5475;SDS011;2760;50.000;9.194;2023-07-02T02:59:59;3.57;;;2.70;;
5475;SDS011;2760;50.000;9.194;2023-07-02T03:02:26;2.93;;;2.30;;
5475;SDS011;2760;50.000;9.194;2023-07-02T03:04:55;3.60;;;2.50;;
5475;SDS011;2760;50.000;9.194;2023-07-02T03:07:27;5.03;;;2.80;;
5475;SDS011;2760;50.000;9.194;2023-07-02T03:09:54;6.73;;;2.53;;
5475;SDS011;2760;50.000;9.194;2023-07-02T03:12:22;3.90;;;2.20;;
5475;SDS011;2760;50.000;9.194;2023-07-02T03:14:50;5.93;;;3.43;;
5475;SDS011;2760;50.000;9.194;2023-07-02T03:17:19;2.60;;;2.40;;
5475;SDS011;2760;50.000;9.194;2023-07-02T03:19:48;4.90;;;2.60;;
5475;SDS011;2760;50.000;9.194;2023-07-02T03:22:17;4.13;;;3.13;;
5475;SDS011;2760;50.000;9.194;2023-07-02T03:24:44;7.00;;;3.20;;
5475;SDS011;2760;50.000;9.194;2023-07-02T03:27:11;5.00;;;3.47;;
5475;SDS011;2760;50.000;9.194;2023-07-02T03:29:38;4.67;;;3.27;;
5475;SDS011;2760;50.000;9.194;2023-07-02T03:32:05;8.77;;;4.20;;
5475;SDS011;2760;50.000;9.194;2023-07-02T03:34:33;3.87;;;2.80;;
5475;SDS011;2760;50.000;9.194;2023-07-02T03:37:00;9.13;;;3.83;;
5475;SDS011;2760;50.000;9.194;2023-07-02T03:39:29;7.90;;;3.90;;
5475;SDS011;2760;50.000;9.194;2023-07-02T03:41:56;5.90;;;3.50;;
5475;SDS011;2760;50.000;9.194;2023-07-02T03:44:23;9.00;;;3.90;;
5475;SDS011;2760;50.000;9.194;2023-07-02T03:46:50;9.10;;;4.27;;
5475;SDS011;2760;50.000;9.194;2023-07-02T03:49:17;7.80;;;3.87;;
5475;SDS011;2760;50.000;9.194;2023-07-02T03:51:44;6.93;;;3.60;;
5475;SDS011;2760;50.000;9.194;2023-07-02T03:54:11;9.67;;;5.03;;
5475;SDS011;2760;50.000;9.194;2023-07-02T03:56:40;7.17;;;3.83;;
5475;SDS011;2760;50.000;9.194;2023-07-02T03:59:07;15.93;;;3.60;;
5475;SDS011;2760;50.000;9.194;2023-07-02T04:01:34;6.10;;;4.00;;
5475;SDS011;2760;50.000;9.194;2023-07-02T04:04:01;6.40;;;4.37;;
5475;SDS011;2760;50.000;9.194;2023-07-02T04:06:29;7.63;;;3.83;;
5475;SDS011;2760;50.000;9.194;2023-07-02T04:08:56;8.00;;;4.27;;
5475;SDS011;2760;50.000;9.194;2023-07-02T04:11:23;10.30;;;4.97;;
5475;SDS011;2760;50.000;9.194;2023-07-02T04:13:51;8.90;;;4.80;;
5475;SDS011;2760;50.000;9.194;2023-07-02T04:16:19;8.40;;;5.03;;
5475;SDS011;2760;50.000;9.194;2023-07-02T04:18:46;8.23;;;4.83;;
5475;SDS011;2760;50.000;9.194;2023-07-02T04:21:13;8.27;;;4.70;;
5475;SDS011;2760;50.000;9.194;2023-07-02T04:23:41;5.40;;;3.97;;
5475;SDS011;2760;50.000;9.194;2023-07-02T04:26:08;9.40;;;4.07;;
5475;SDS011;2760;50.000;9.194;2023-07-02T04:28:35;9.17;;;4.77;;
5475;SDS011;2760;50.000;9.194;2023-07-02T04:31:04;14.00;;;4.70;;
5475;SDS011;2760;50.000;9.194;2023-07-02T04:33:31;11.37;;;4.67;;
5475;SDS011;2760;50.000;9.194;2023-07-02T04:36:01;12.07;;;4.87;;
5475;SDS011;2760;50.000;9.194;2023-07-02T04:38:28;6.60;;;4.53;;
5475;SDS011;2760;50.000;9.194;2023-07-02T04:40:55;8.50;;;5.10;;
5475;SDS011;2760;50.000;9.194;2023-07-02T04:43:26;12.03;;;5.90;;
5475;SDS011;2760;50.000;9.194;2023-07-02T04:45:54;9.77;;;5.27;;
5475;SDS011;2760;50.000;9.194;2023-07-02T04:48:23;11.70;;;4.63;;
5475;SDS011;2760;50.000;9.194;2023-07-02T04:50:50;12.30;;;5.20;;
5475;SDS011;2760;50.000;9.194;2023-07-02T04:53:17;10.80;;;4.83;;
5475;SDS011;2760;50.000;9.194;2023-07-02T04:55:44;10.20;;;5.13;;
5475;SDS011;2760;50.000;9.194;2023-07-02T04:58:11;7.67;;;4.90;;
5475;SDS011;2760;50.000;9.194;2023-07-02T05:00:39;13.40;;;5.50;;
5475;SDS011;2760;50.000;9.194;2023-07-02T05:03:06;11.23;;;5.57;;
5475;SDS011;2760;50.000;9.194;2023-07-02T05:05:35;8.93;;;5.40;;
5475;SDS011;2760;50.000;9.194;2023-07-02T05:08:02;15.40;;;6.00;;
5475;SDS011;2760;50.000;9.194;2023-07-02T05:10:30;10.23;;;5.20;;
5475;SDS011;2760;50.000;9.194;2023-07-02T05:12:57;11.50;;;6.30;;
5475;SDS011;2760;50.000;9.194;2023-07-02T05:15:24;9.30;;;5.80;;
5475;SDS011;2760;50.000;9.194;2023-07-02T05:17:51;13.20;;;5.93;;
5475;SDS011;2760;50.000;9.194;2023-07-02T05:20:19;15.33;;;6.17;;
5475;SDS011;2760;50.000;9.194;2023-07-02T05:22:47;9.63;;;5.27;;
5475;SDS011;2760;50.000;9.194;2023-07-02T05:25:14;11.67;;;5.77;;
5475;SDS011;2760;50.000;9.194;2023-07-02T05:27:42;11.33;;;5.30;;
5475;SDS011;2760;50.000;9.194;2023-07-02T05:30:09;16.00;;;6.50;;
5475;SDS011;2760;50.000;9.194;2023-07-02T05:32:39;8.97;;;5.70;;
5475;SDS011;2760;50.000;9.194;2023-07-02T05:35:06;10.20;;;5.73;;
5475;SDS011;2760;50.000;9.194;2023-07-02T05:37:33;10.77;;;6.47;;
5475;SDS011;2760;50.000;9.194;2023-07-02T05:40:02;10.50;;;5.63;;
5475;SDS011;2760;50.000;9.194;2023-07-02T05:42:30;8.67;;;6.27;;
5475;SDS011;2760;50.000;9.194;2023-07-02T05:44:57;14.87;;;6.47;;
5475;SDS011;2760;50.000;9.194;2023-07-02T05:47:24;13.10;;;7.10;;
5475;SDS011;2760;50.000;9.194;2023-07-02T05:49:51;13.40;;;7.33;;
5475;SDS011;2760;50.000;9.194;2023-07-02T05:52:18;14.73;;;6.20;;
5475;SDS011;2760;50.000;9.194;2023-07-02T05:54:45;10.40;;;6.40;;
5475;SDS011;2760;50.000;9.194;2023-07-02T05:57:14;13.13;;;7.40;;
5475;SDS011;2760;50.000;9.194;2023-07-02T05:59:41;17.47;;;6.67;;
5475;SDS011;2760;50.000;9.194;2023-07-02T06:02:08;12.37;;;7.33;;
5475;SDS011;2760;50.000;9.194;2023-07-02T06:04:35;17.23;;;6.83;;
5475;SDS011;2760;50.000;9.194;2023-07-02T06:07:02;14.00;;;7.00;;
5475;SDS011;2760;50.000;9.194;2023-07-02T06:09:29;16.57;;;7.20;;
5475;SDS011;2760;50.000;9.194;2023-07-02T06:11:56;15.97;;;8.13;;
5475;SDS011;2760;50.000;9.194;2023-07-02T06:14:25;12.50;;;6.87;;
5475;SDS011;2760;50.000;9.194;2023-07-02T06:16:52;15.40;;;8.03;;
5475;SDS011;2760;50.000;9.194;2023-07-02T06:19:22;13.43;;;6.50;;
5475;SDS011;2760;50.000;9.194;2023-07-02T06:21:49;17.03;;;8.07;;
5475;SDS011;2760;50.000;9.194;2023-07-02T06:24:16;13.60;;;7.53;;
5475;SDS011;2760;50.000;9.194;2023-07-02T06:26:43;14.63;;;8.03;;
5475;SDS011;2760;50.000;9.194;2023-07-02T06:29:10;19.90;;;7.83;;
5475;SDS011;2760;50.000;9.194;2023-07-02T06:31:39;20.73;;;8.33;;
5475;SDS011;2760;50.000;9.194;2023-07-02T06:34:06;16.00;;;9.23;;
5475;SDS011;2760;50.000;9.194;2023-07-02T06:36:33;17.70;;;8.90;;
5475;SDS011;2760;50.000;9.194;2023-07-02T06:39:01;15.57;;;9.50;;
5475;SDS011;2760;50.000;9.194;2023-07-02T06:41:28;18.43;;;8.50;;
5475;SDS011;2760;50.000;9.194;2023-07-02T06:43:55;17.13;;;9.70;;
5475;SDS011;2760;50.000;9.194;2023-07-02T06:46:24;19.03;;;8.83;;
5475;SDS011;2760;50.000;9.194;2023-07-02T06:48:52;16.67;;;9.50;;
5475;SDS011;2760;50.000;9.194;2023-07-02T06:51:21;18.93;;;8.90;;
5475;SDS011;2760;50.000;9.194;2023-07-02T06:53:50;32.90;;;10.50;;
5475;SDS011;2760;50.000;9.194;2023-07-02T06:56:17;18.67;;;9.20;;
5475;SDS011;2760;50.000;9.194;2023-07-02T06:58:44;20.63;;;9.80;;
5475;SDS011;2760;50.000;9.194;2023-07-02T07:01:12;17.90;;;8.90;;
5475;SDS011;2760;50.000;9.194;2023-07-02T07:03:39;18.23;;;9.73;;
5475;SDS011;2760;50.000;9.194;2023-07-02T07:06:07;19.80;;;10.03;;
5475;SDS011;2760;50.000;9.194;2023-07-02T07:08:37;20.80;;;10.30;;
5475;SDS011;2760;50.000;9.194;2023-07-02T07:11:04;16.63;;;9.50;;
5475;SDS011;2760;50.000;9.194;2023-07-02T07:13:32;18.63;;;9.67;;
5475;SDS011;2760;50.000;9.194;2023-07-02T07:15:59;18.63;;;9.90;;
5475;SDS011;2760;50.000;9.194;2023-07-02T07:18:26;15.70;;;9.17;;
5475;SDS011;2760;50.000;9.194;2023-07-02T07:20:53;18.23;;;9.70;;
5475;SDS011;2760;50.000;9.194;2023-07-02T07:23:22;18.13;;;9.33;;
5475;SDS011;2760;50.000;9.194;2023-07-02T07:25:49;18.13;;;9.80;;
5475;SDS011;2760;50.000;9.194;2023-07-02T07:28:16;22.63;;;10.33;;
5475;SDS011;2760;50.000;9.194;2023-07-02T07:30:44;18.00;;;10.23;;
5475;SDS011;2760;50.000;9.194;2023-07-02T07:33:11;15.73;;;9.57;;
5475;SDS011;2760;50.000;9.194;2023-07-02T07:35:39;25.30;;;15.57;;
5475;SDS011;2760;50.000;9.194;2023-07-02T07:38:06;17.97;;;9.50;;
5475;SDS011;2760;50.000;9.194;2023-07-02T07:40:35;18.97;;;10.80;;
5475;SDS011;2760;50.000;9.194;2023-07-02T07:43:03;17.20;;;10.00;;
5475;SDS011;2760;50.000;9.194;2023-07-02T07:45:30;18.90;;;9.90;;
5475;SDS011;2760;50.000;9.194;2023-07-02T07:47:57;23.43;;;10.43;;
5475;SDS011;2760;50.000;9.194;2023-07-02T07:50:25;21.17;;;9.23;;
5475;SDS011;2760;50.000;9.194;2023-07-02T07:52:52;17.40;;;9.57;;
5475;SDS011;2760;50.000;9.194;2023-07-02T07:55:19;16.87;;;9.67;;
5475;SDS011;2760;50.000;9.194;2023-07-02T07:57:48;18.20;;;9.93;;
5475;SDS011;2760;50.000;9.194;2023-07-02T08:00:15;16.80;;;9.70;;
5475;SDS011;2760;50.000;9.194;2023-07-02T08:02:43;21.53;;;10.70;;
5475;SDS011;2760;50.000;9.194;2023-07-02T08:05:11;28.37;;;11.03;;
5475;SDS011;2760;50.000;9.194;2023-07-02T08:07:39;17.67;;;10.60;;
5475;SDS011;2760;50.000;9.194;2023-07-02T08:10:07;16.40;;;10.17;;
5475;SDS011;2760;50.000;9.194;2023-07-02T08:12:35;25.67;;;11.10;;
5475;SDS011;2760;50.000;9.194;2023-07-02T08:15:04;22.87;;;10.40;;
5475;SDS011;2760;50.000;9.194;2023-07-02T08:17:32;22.03;;;12.30;;
5475;SDS011;2760;50.000;9.194;2023-07-02T08:19:59;22.63;;;11.47;;
5475;SDS011;2760;50.000;9.194;2023-07-02T08:22:26;20.00;;;11.03;;
5475;SDS011;2760;50.000;9.194;2023-07-02T08:24:53;18.73;;;11.67;;
5475;SDS011;2760;50.000;9.194;2023-07-02T08:27:20;17.43;;;10.00;;
5475;SDS011;2760;50.000;9.194;2023-07-02T08:29:48;17.80;;;9.87;;
5475;SDS011;2760;50.000;9.194;2023-07-02T08:32:17;22.53;;;11.77;;
5475;SDS011;2760;50.000;9.194;2023-07-02T08:34:44;18.23;;;10.67;;
5475;SDS011;2760;50.000;9.194;2023-07-02T08:37:11;20.70;;;11.70;;
5475;SDS011;2760;50.000;9.194;2023-07-02T08:39:39;17.70;;;9.40;;
5475;SDS011;2760;50.000;9.194;2023-07-02T08:42:06;22.77;;;11.30;;
5475;SDS011;2760;50.000;9.194;2023-07-02T08:44:34;20.67;;;11.17;;
5475;SDS011;2760;50.000;9.194;2023-07-02T08:47:01;21.23;;;10.30;;
5475;SDS011;2760;50.000;9.194;2023-07-02T08:49:30;22.23;;;10.53;;
5475;SDS011;2760;50.000;9.194;2023-07-02T08:51:57;20.33;;;10.07;;
5475;SDS011;2760;50.000;9.194;2023-07-02T08:54:25;18.80;;;11.10;;
5475;SDS011;2760;50.000;9.194;2023-07-02T08:56:55;20.93;;;11.60;;
5475;SDS011;2760;50.000;9.194;2023-07-02T08:59:22;21.40;;;10.30;;
5475;SDS011;2760;50.000;9.194;2023-07-02T09:01:50;20.00;;;10.83;;
5475;SDS011;2760;50.000;9.194;2023-07-02T09:04:19;18.37;;;10.30;;
5475;SDS011;2760;50.000;9.194;2023-07-02T09:06:50;17.97;;;9.80;;
5475;SDS011;2760;50.000;9.194;2023-07-02T09:09:19;16.57;;;9.70;;
5475;SDS011;2760;50.000;9.194;2023-07-02T09:11:46;17.60;;;11.13;;
5475;SDS011;2760;50.000;9.194;2023-07-02T09:14:24;16.80;;;9.60;;
5475;SDS011;2760;50.000;9.194;2023-07-02T09:17:02;17.50;;;10.10;;
5475;SDS011;2760;50.000;9.194;2023-07-02T09:19:31;20.67;;;9.87;;
5475;SDS011;2760;50.000;9.194;2023-07-02T09:22:00;14.77;;;9.70;;
5475;SDS011;2760;50.000;9.194;2023-07-02T09:24:27;22.40;;;10.80;;
5475;SDS011;2760;50.000;9.194;2023-07-02T09:26:58;18.20;;;10.10;;
5475;SDS011;2760;50.000;9.194;2023-07-02T09:29:27;21.43;;;8.90;;
5475;SDS011;2760;50.000;9.194;2023-07-02T09:31:59;14.40;;;9.10;;
5475;SDS011;2760;50.000;9.194;2023-07-02T09:34:28;14.17;;;8.80;;
5475;SDS011;2760;50.000;9.194;2023-07-02T09:36:56;16.43;;;7.73;;
5475;SDS011;2760;50.000;9.194;2023-07-02T09:39:28;12.27;;;8.30;;
5475;SDS011;2760;50.000;9.194;2023-07-02T09:41:57;14.27;;;9.10;;
5475;SDS011;2760;50.000;9.194;2023-07-02T09:44:25;25.87;;;9.00;;
5475;SDS011;2760;50.000;9.194;2023-07-02T09:46:56;13.00;;;8.77;;
5475;SDS011;2760;50.000;9.194;2023-07-02T09:49:26;14.90;;;8.70;;
5475;SDS011;2760;50.000;9.194;2023-07-02T09:51:58;13.63;;;7.60;;
5475;SDS011;2760;50.000;9.194;2023-07-02T09:54:25;17.97;;;10.00;;
5475;SDS011;2760;50.000;9.194;2023-07-02T09:56:54;17.47;;;9.00;;
5475;SDS011;2760;50.000;9.194;2023-07-02T09:59:22;14.93;;;8.10;;
5475;SDS011;2760;50.000;9.194;2023-07-02T10:01:49;15.50;;;9.00;;
5475;SDS011;2760;50.000;9.194;2023-07-02T10:04:17;22.03;;;8.90;;
5475;SDS011;2760;50.000;9.194;2023-07-02T10:06:45;14.80;;;9.60;;
5475;SDS011;2760;50.000;9.194;2023-07-02T10:09:16;17.50;;;8.90;;
5475;SDS011;2760;50.000;9.194;2023-07-02T10:11:43;12.77;;;8.97;;
5475;SDS011;2760;50.000;9.194;2023-07-02T10:14:12;15.50;;;9.37;;
5475;SDS011;2760;50.000;9.194;2023-07-02T10:16:49;13.33;;;8.57;;
5475;SDS011;2760;50.000;9.194;2023-07-02T10:19:16;18.63;;;9.70;;
5475;SDS011;2760;50.000;9.194;2023-07-02T10:21:45;17.00;;;8.83;;
5475;SDS011;2760;50.000;9.194;2023-07-02T10:24:17;13.43;;;8.77;;
5475;SDS011;2760;50.000;9.194;2023-07-02T10:26:54;23.03;;;9.17;;
5475;SDS011;2760;50.000;9.194;2023-07-02T10:29:23;15.93;;;8.30;;
5475;SDS011;2760;50.000;9.194;2023-07-02T10:31:51;15.20;;;8.73;;
5475;SDS011;2760;50.000;9.194;2023-07-02T10:34:29;14.93;;;8.40;;
5475;SDS011;2760;50.000;9.194;2023-07-02T10:36:56;18.20;;;9.40;;
5475;SDS011;2760;50.000;9.194;2023-07-02T10:39:24;14.50;;;9.70;;
5475;SDS011;2760;50.000;9.194;2023-07-02T10:41:52;15.20;;;8.40;;
5475;SDS011;2760;50.000;9.194;2023-07-02T10:44:19;19.37;;;9.00;;
5475;SDS011;2760;50.000;9.194;2023-07-02T10:46:48;14.73;;;8.50;;
5475;SDS011;2760;50.000;9.194;2023-07-02T10:49:17;12.87;;;8.23;;
5475;SDS011;2760;50.000;9.194;2023-07-02T10:51:55;12.67;;;8.20;;
5475;SDS011;2760;50.000;9.194;2023-07-02T10:54:23;14.23;;;8.20;;
5475;SDS011;2760;50.000;9.194;2023-07-02T10:56:50;12.70;;;8.33;;
5475;SDS011;2760;50.000;9.194;2023-07-02T10:59:25;14.10;;;8.43;;
5475;SDS011;2760;50.000;9.194;2023-07-02T11:01:53;13.93;;;8.90;;
5475;SDS011;2760;50.000;9.194;2023-07-02T11:04:20;15.30;;;7.93;;
5475;SDS011;2760;50.000;9.194;2023-07-02T11:06:48;15.07;;;8.60;;
5475;SDS011;2760;50.000;9.194;2023-07-02T11:09:16;13.50;;;8.83;;
5475;SDS011;2760;50.000;9.194;2023-07-02T11:11:49;15.57;;;8.63;;
5475;SDS011;2760;50.000;9.194;2023-07-02T11:14:29;15.20;;;8.77;;
5475;SDS011;2760;50.000;9.194;2023-07-02T11:16:59;17.53;;;8.57;;
5475;SDS011;2760;50.000;9.194;2023-07-02T11:19:29;14.97;;;8.67;;
5475;SDS011;2760;50.000;9.194;2023-07-02T11:21:58;17.17;;;8.90;;
5475;SDS011;2760;50.000;9.194;2023-07-02T11:24:27;14.87;;;9.27;;
5475;SDS011;2760;50.000;9.194;2023-07-02T11:26:55;15.27;;;8.57;;
5475;SDS011;2760;50.000;9.194;2023-07-02T11:29:22;18.60;;;9.00;;
5475;SDS011;2760;50.000;9.194;2023-07-02T11:31:49;18.57;;;9.73;;
5475;SDS011;2760;50.000;9.194;2023-07-02T11:34:21;15.33;;;10.03;;
5475;SDS011;2760;50.000;9.194;2023-07-02T11:36:50;18.57;;;10.47;;
5475;SDS011;2760;50.000;9.194;2023-07-02T11:39:19;15.10;;;9.97;;
5475;SDS011;2760;50.000;9.194;2023-07-02T11:41:47;13.93;;;10.20;;
5475;SDS011;2760;50.000;9.194;2023-07-02T11:44:15;23.10;;;10.73;;
5475;SDS011;2760;50.000;9.194;2023-07-02T11:46:42;16.20;;;10.90;;
5475;SDS011;2760;50.000;9.194;2023-07-02T11:49:10;20.23;;;10.80;;
5475;SDS011;2760;50.000;9.194;2023-07-02T11:51:38;20.70;;;10.93;;
5475;SDS011;2760;50.000;9.194;2023-07-02T11:54:06;17.97;;;10.43;;
5475;SDS011;2760;50.000;9.194;2023-07-02T11:56:33;20.67;;;12.23;;
5475;SDS011;2760;50.000;9.194;2023-07-02T11:59:01;18.93;;;10.30;;
5475;SDS011;2760;50.000;9.194;2023-07-02T12:01:28;14.80;;;10.80;;
5475;SDS011;2760;50.000;9.194;2023-07-02T12:03:55;21.30;;;12.10;;
5475;SDS011;2760;50.000;9.194;2023-07-02T12:06:22;22.13;;;12.60;;
5475;SDS011;2760;50.000;9.194;2023-07-02T12:08:50;21.60;;;12.87;;
5475;SDS011;2760;50.000;9.194;2023-07-02T12:11:17;20.30;;;12.00;;
5475;SDS011;2760;50.000;9.194;2023-07-02T12:13:44;23.53;;;10.53;;
5475;SDS011;2760;50.000;9.194;2023-07-02T12:16:11;18.03;;;11.60;;
5475;SDS011;2760;50.000;9.194;2023-07-02T12:18:38;18.43;;;12.47;;
5475;SDS011;2760;50.000;9.194;2023-07-02T12:21:07;22.00;;;12.40;;
5475;SDS011;2760;50.000;9.194;2023-07-02T12:23:34;19.10;;;12.03;;
5475;SDS011;2760;50.000;9.194;2023-07-02T12:26:03;19.07;;;11.70;;
5475;SDS011;2760;50.000;9.194;2023-07-02T12:28:30;23.33;;;12.40;;
5475;SDS011;2760;50.000;9.194;2023-07-02T12:30:57;25.00;;;12.60;;
5475;SDS011;2760;50.000;9.194;2023-07-02T12:33:25;20.10;;;12.23;;
5475;SDS011;2760;50.000;9.194;2023-07-02T12:35:52;18.43;;;11.30;;
5475;SDS011;2760;50.000;9.194;2023-07-02T12:38:20;22.60;;;13.40;;
5475;SDS011;2760;50.000;9.194;2023-07-02T12:40:47;25.40;;;11.30;;
5475;SDS011;2760;50.000;9.194;2023-07-02T12:43:16;17.53;;;11.23;;
5475;SDS011;2760;50.000;9.194;2023-07-02T12:45:42;18.63;;;12.03;;
5475;SDS011;2760;50.000;9.194;2023-07-02T12:48:09;17.87;;;11.80;;
5475;SDS011;2760;50.000;9.194;2023-07-02T12:50:37;20.10;;;12.40;;
5475;SDS011;2760;50.000;9.194;2023-07-02T12:53:05;22.10;;;12.20;;
5475;SDS011;2760;50.000;9.194;2023-07-02T12:55:32;18.37;;;11.20;;
5475;SDS011;2760;50.000;9.194;2023-07-02T12:57:59;20.20;;;12.10;;
5475;SDS011;2760;50.000;9.194;2023-07-02T13:00:27;20.93;;;11.83;;
5475;SDS011;2760;50.000;9.194;2023-07-02T13:02:54;20.77;;;12.13;;
5475;SDS011;2760;50.000;9.194;2023-07-02T13:05:21;25.70;;;13.50;;
5475;SDS011;2760;50.000;9.194;2023-07-02T13:07:48;23.97;;;12.87;;
5475;SDS011;2760;50.000;9.194;2023-07-02T13:10:15;21.70;;;12.03;;
5475;SDS011;2760;50.000;9.194;2023-07-02T13:12:42;22.13;;;13.13;;
5475;SDS011;2760;50.000;9.194;2023-07-02T13:15:09;20.07;;;13.00;;
5475;SDS011;2760;50.000;9.194;2023-07-02T13:17:38;25.10;;;12.37;;
5475;SDS011;2760;50.000;9.194;2023-07-02T13:20:06;22.37;;;11.77;;
5475;SDS011;2760;50.000;9.194;2023-07-02T13:22:34;23.10;;;12.80;;
5475;SDS011;2760;50.000;9.194;2023-07-02T13:25:02;19.37;;;11.57;;
5475;SDS011;2760;50.000;9.194;2023-07-02T13:27:29;22.20;;;13.80;;
5475;SDS011;2760;50.000;9.194;2023-07-02T13:29:56;21.00;;;13.37;;
5475;SDS011;2760;50.000;9.194;2023-07-02T13:32:23;24.13;;;13.57;;
5475;SDS011;2760;50.000;9.194;2023-07-02T13:34:55;25.27;;;13.43;;
5475;SDS011;2760;50.000;9.194;2023-07-02T13:37:23;24.20;;;13.50;;
5475;SDS011;2760;50.000;9.194;2023-07-02T13:39:50;27.80;;;13.67;;
5475;SDS011;2760;50.000;9.194;2023-07-02T13:42:17;20.57;;;12.87;;
5475;SDS011;2760;50.000;9.194;2023-07-02T13:44:45;22.40;;;13.20;;
5475;SDS011;2760;50.000;9.194;2023-07-02T13:47:12;27.00;;;12.70;;
5475;SDS011;2760;50.000;9.194;2023-07-02T13:49:39;22.17;;;13.47;;
5475;SDS011;2760;50.000;9.194;2023-07-02T13:52:08;19.50;;;14.00;;
5475;SDS011;2760;50.000;9.194;2023-07-02T13:54:35;21.73;;;13.47;;
5475;SDS011;2760;50.000;9.194;2023-07-02T13:57:02;25.93;;;14.70;;
5475;SDS011;2760;50.000;9.194;2023-07-02T13:59:31;25.13;;;14.60;;
5475;SDS011;2760;50.000;9.194;2023-07-02T14:01:58;24.40;;;14.17;;
5475;SDS011;2760;50.000;9.194;2023-07-02T14:04:26;27.23;;;14.27;;
5475;SDS011;2760;50.000;9.194;2023-07-02T14:06:53;24.87;;;13.63;;
5475;SDS011;2760;50.000;9.194;2023-07-02T14:09:20;26.70;;;14.10;;
5475;SDS011;2760;50.000;9.194;2023-07-02T14:11:46;26.93;;;13.93;;
5475;SDS011;2760;50.000;9.194;2023-07-02T14:14:13;22.63;;;13.30;;
5475;SDS011;2760;50.000;9.194;2023-07-02T14:16:42;22.47;;;13.20;;
5475;SDS011;2760;50.000;9.194;2023-07-02T14:19:09;19.00;;;12.40;;
5475;SDS011;2760;50.000;9.194;2023-07-02T14:21:37;27.33;;;13.80;;
5475;SDS011;2760;50.000;9.194;2023-07-02T14:24:04;23.20;;;12.93;;
5475;SDS011;2760;50.000;9.194;2023-07-02T14:26:31;22.47;;;12.77;;
5475;SDS011;2760;50.000;9.194;2023-07-02T14:28:58;24.80;;;13.47;;
5475;SDS011;2760;50.000;9.194;2023-07-02T14:31:25;22.27;;;12.33;;
5475;SDS011;2760;50.000;9.194;2023-07-02T14:33:54;20.60;;;13.20;;
5475;SDS011;2760;50.000;9.194;2023-07-02T14:36:21;18.00;;;12.23;;
5475;SDS011;2760;50.000;9.194;2023-07-02T14:38:48;22.40;;;11.83;;
5475;SDS011;2760;50.000;9.194;2023-07-02T14:41:14;18.83;;;12.13;;
5475;SDS011;2760;50.000;9.194;2023-07-02T14:43:41;24.07;;;12.37;;
5475;SDS011;2760;50.000;9.194;2023-07-02T14:46:08;20.30;;;12.87;;
5475;SDS011;2760;50.000;9.194;2023-07-02T14:48:36;24.00;;;12.60;;
5475;SDS011;2760;50.000;9.194;2023-07-02T14:51:04;19.97;;;12.17;;
5475;SDS011;2760;50.000;9.194;2023-07-02T14:53:31;20.47;;;12.20;;
5475;SDS011;2760;50.000;9.194;2023-07-02T14:56:00;25.73;;;11.70;;
5475;SDS011;2760;50.000;9.194;2023-07-02T14:58:28;23.03;;;13.50;;
5475;SDS011;2760;50.000;9.194;2023-07-02T15:00:56;18.50;;;12.27;;
5475;SDS011;2760;50.000;9.194;2023-07-02T15:03:25;21.40;;;12.37;;
5475;SDS011;2760;50.000;9.194;2023-07-02T15:05:53;22.10;;;12.20;;